sensor_id;sensor_type;location;lat;lon;timestamp;pressure;altitude;pressure_sealevel;temperature;humidity
41945;BME280;63122;52.424;13.458;2024-01-10T00:30:52;102876.56;;;-7.18;100.00
41945;BME280;63122;52.424;13.458;2024-01-10T01:00:53;102861.97;;;-7.24;100.00
41945;BME280;63122;52.424;13.458;2024-01-10T01:16:41;102846.06;;;-6.89;100.00
41945;BME280;63122;52.424;13.458;2024-01-10T01:18:37;102843.41;;;-7.00;100.00
41945;BME280;63122;52.424;13.458;2024-01-10T01:20:35;102847.53;;;-7.16;100.00
41945;BME280;63122;52.424;13.458;2024-01-10T01:22:30;102843.22;;;-7.17;100.00
41945;BME280;63122;52.424;13.458;2024-01-10T01:24:26;102848.22;;;-7.29;100.00
41945;BME280;63122;52.424;13.458;2024-01-10T01:26:19;102851.56;;;-7.38;100.00
41945;BME280;63122;52.424;13.458;2024-01-10T01:28:15;102847.16;;;-7.47;100.00
41945;BME280;63122;52.424;13.458;2024-01-10T01:30:11;102842.06;;;-7.42;100.00
41945;BME280;63122;52.424;13.458;2024-01-10T01:32:07;102841.28;;;-7.38;100.00
41945;BME280;63122;52.424;13.458;2024-01-10T01:34:03;102840.34;;;-7.43;100.00
41945;BME280;63122;52.424;13.458;2024-01-10T01:35:59;102839.53;;;-7.41;100.00
41945;BME280;63122;52.424;13.458;2024-01-10T01:37:53;102837.00;;;-7.38;100.00
41945;BME280;63122;52.424;13.458;2024-01-10T01:39:49;102848.97;;;-7.40;100.00
41945;BME280;63122;52.424;13.458;2024-01-10T01:41:42;102843.72;;;-7.47;100.00
41945;BME280;63122;52.424;13.458;2024-01-10T01:43:38;102840.25;;;-7.53;100.00
41945;BME280;63122;52.424;13.458;2024-01-10T01:45:33;102842.13;;;-7.38;100.00
41945;BME280;63122;52.424;13.458;2024-01-10T01:47:32;102836.06;;;-7.46;100.00
41945;BME280;63122;52.424;13.458;2024-01-10T01:49:28;102837.94;;;-7.31;100.00
41945;BME280;63122;52.424;13.458;2024-01-10T01:51:22;102836.19;;;-7.33;100.00
41945;BME280;63122;52.424;13.458;2024-01-10T01:53:17;102829.38;;;-7.33;100.00
41945;BME280;63122;52.424;13.458;2024-01-10T01:55:11;102835.25;;;-7.40;100.00
41945;BME280;63122;52.424;13.458;2024-01-10T01:57:08;102841.19;;;-7.46;100.00
41945;BME280;63122;52.424;13.458;2024-01-10T01:59:02;102837.81;;;-7.42;100.00
41945;BME280;63122;52.424;13.458;2024-01-10T02:45:54;102830.59;;;-7.72;100.00
41945;BME280;63122;52.424;13.458;2024-01-10T02:47:47;102834.88;;;-7.73;100.00
41945;BME280;63122;52.424;13.458;2024-01-10T02:49:42;102828.88;;;-7.73;100.00
41945;BME280;63122;52.424;13.458;2024-01-10T02:51:35;102828.09;;;-7.68;100.00
41945;BME280;63122;52.424;13.458;2024-01-10T02:53:31;102829.78;;;-7.70;100.00
41945;BME280;63122;52.424;13.458;2024-01-10T02:55:26;102833.09;;;-7.78;100.00
41945;BME280;63122;52.424;13.458;2024-01-10T02:57:21;102824.41;;;-7.90;100.00
41945;BME280;63122;52.424;13.458;2024-01-10T02:59:17;102836.53;;;-7.78;100.00
41945;BME280;63122;52.424;13.458;2024-01-10T03:01:16;102828.81;;;-7.79;100.00
41945;BME280;63122;52.424;13.458;2024-01-10T03:03:11;102828.66;;;-7.90;100.00
41945;BME280;63122;52.424;13.458;2024-01-10T03:05:07;102831.19;;;-7.93;100.00
41945;BME280;63122;52.424;13.458;2024-01-10T03:07:00;102826.00;;;-8.00;100.00
41945;BME280;63122;52.424;13.458;2024-01-10T03:08:56;102820.06;;;-7.96;100.00
41945;BME280;63122;52.424;13.458;2024-01-10T03:10:51;102814.03;;;-8.01;100.00
41945;BME280;63122;52.424;13.458;2024-01-10T03:12:44;102810.50;;;-8.09;100.00
41945;BME280;63122;52.424;13.458;2024-01-10T03:14:39;102814.78;;;-8.08;100.00
41945;BME280;63122;52.424;13.458;2024-01-10T03:16:37;102813.66;;;-8.26;100.00
41945;BME280;63122;52.424;13.458;2024-01-10T03:18:30;102818.06;;;-8.17;100.00
41945;BME280;63122;52.424;13.458;2024-01-10T03:20:25;102807.03;;;-8.11;100.00
41945;BME280;63122;52.424;13.458;2024-01-10T03:22:21;102806.19;;;-8.12;100.00
41945;BME280;63122;52.424;13.458;2024-01-10T03:24:16;102804.50;;;-8.10;100.00
41945;BME280;63122;52.424;13.458;2024-01-10T03:26:09;102801.88;;;-8.14;100.00
41945;BME280;63122;52.424;13.458;2024-01-10T03:28:05;102801.81;;;-8.19;100.00
41945;BME280;63122;52.424;13.458;2024-01-10T03:29:57;102807.56;;;-8.34;100.00
41945;BME280;63122;52.424;13.458;2024-01-10T03:31:56;102806.81;;;-8.25;100.00
41945;BME280;63122;52.424;13.458;2024-01-10T03:33:51;102803.53;;;-8.16;100.00
41945;BME280;63122;52.424;13.458;2024-01-10T03:35:44;102807.13;;;-8.05;100.00
41945;BME280;63122;52.424;13.458;2024-01-10T03:37:40;102800.28;;;-8.06;100.00
41945;BME280;63122;52.424;13.458;2024-01-10T03:39:35;102805.44;;;-8.03;100.00
41945;BME280;63122;52.424;13.458;2024-01-10T03:41:28;102800.38;;;-8.00;100.00
41945;BME280;63122;52.424;13.458;2024-01-10T03:43:23;102802.94;;;-7.98;100.00
41945;BME280;63122;52.424;13.458;2024-01-10T03:45:17;102799.63;;;-7.89;100.00
41945;BME280;63122;52.424;13.458;2024-01-10T03:47:18;102799.66;;;-7.86;100.00
41945;BME280;63122;52.424;13.458;2024-01-10T03:49:13;102798.88;;;-7.82;100.00
41945;BME280;63122;52.424;13.458;2024-01-10T03:51:07;102798.88;;;-7.82;100.00
41945;BME280;63122;52.424;13.458;2024-01-10T03:53:03;102796.41;;;-7.76;100.00
41945;BME280;63122;52.424;13.458;2024-01-10T03:54:59;102802.38;;;-7.77;100.00
41945;BME280;63122;52.424;13.458;2024-01-10T03:56:52;102800.50;;;-7.89;100.00
41945;BME280;63122;52.424;13.458;2024-01-10T03:58:47;102801.38;;;-7.87;100.00
41945;BME280;63122;52.424;13.458;2024-01-10T04:00:43;102786.06;;;-7.82;100.00
41945;BME280;63122;52.424;13.458;2024-01-10T04:02:42;102791.28;;;-7.74;100.00
41945;BME280;63122;52.424;13.458;2024-01-10T04:04:40;102788.69;;;-7.77;100.00
41945;BME280;63122;52.424;13.458;2024-01-10T04:06:35;102786.00;;;-7.85;100.00
41945;BME280;63122;52.424;13.458;2024-01-10T04:08:30;102792.81;;;-7.87;100.00
41945;BME280;63122;52.424;13.458;2024-01-10T04:10:26;102787.56;;;-7.98;100.00
41945;BME280;63122;52.424;13.458;2024-01-10T04:12:21;102786.72;;;-7.97;100.00
41945;BME280;63122;52.424;13.458;2024-01-10T04:14:16;102791.91;;;-7.92;100.00
41945;BME280;63122;52.424;13.458;2024-01-10T04:16:11;102783.34;;;-7.95;100.00
41945;BME280;63122;52.424;13.458;2024-01-10T04:18:08;102783.16;;;-8.08;100.00
41945;BME280;63122;52.424;13.458;2024-01-10T04:20:09;102796.03;;;-8.02;100.00
41945;BME280;63122;52.424;13.458;2024-01-10T04:22:03;102791.00;;;-7.96;100.00
41945;BME280;63122;52.424;13.458;2024-01-10T04:23:58;102790.03;;;-8.06;100.00
41945;BME280;63122;52.424;13.458;2024-01-10T04:25:53;102794.13;;;-8.19;100.00
41945;BME280;63122;52.424;13.458;2024-01-10T04:27:46;102785.72;;;-8.08;100.00
41945;BME280;63122;52.424;13.458;2024-01-10T04:29:44;102789.06;;;-8.16;100.00
41945;BME280;63122;52.424;13.458;2024-01-10T04:31:40;102790.78;;;-8.15;100.00
41945;BME280;63122;52.424;13.458;2024-01-10T04:33:38;102790.00;;;-8.07;100.00
41945;BME280;63122;52.424;13.458;2024-01-10T04:35:36;102780.63;;;-8.05;100.00
41945;BME280;63122;52.424;13.458;2024-01-10T04:37:32;102791.75;;;-8.05;100.00
41945;BME280;63122;52.424;13.458;2024-01-10T04:39:28;102787.56;;;-7.98;100.00
41945;BME280;63122;52.424;13.458;2024-01-10T04:41:23;102782.53;;;-7.90;100.00
41945;BME280;63122;52.424;13.458;2024-01-10T04:43:16;102783.41;;;-7.88;100.00
41945;BME280;63122;52.424;13.458;2024-01-10T04:45:12;102775.66;;;-7.95;100.00
41945;BME280;63122;52.424;13.458;2024-01-10T04:47:06;102787.59;;;-7.97;100.00
41945;BME280;63122;52.424;13.458;2024-01-10T04:49:06;102784.88;;;-8.09;100.00
41945;BME280;63122;52.424;13.458;2024-01-10T04:51:02;102779.69;;;-8.12;100.00
41945;BME280;63122;52.424;13.458;2024-01-10T04:52:58;102781.22;;;-8.25;100.00
41945;BME280;63122;52.424;13.458;2024-01-10T04:54:53;102779.44;;;-8.29;100.00
41945;BME280;63122;52.424;13.458;2024-01-10T04:56:48;102789.72;;;-8.28;100.00
41945;BME280;63122;52.424;13.458;2024-01-10T04:58:43;102785.50;;;-8.26;100.00
41945;BME280;63122;52.424;13.458;2024-01-10T05:00:37;102787.34;;;-8.17;100.00
41945;BME280;63122;52.424;13.458;2024-01-10T05:02:32;102784.78;;;-8.17;100.00
41945;BME280;63122;52.424;13.458;2024-01-10T05:04:28;102776.34;;;-8.08;100.00
41945;BME280;63122;52.424;13.458;2024-01-10T05:06:24;102773.78;;;-8.06;100.00
41945;BME280;63122;52.424;13.458;2024-01-10T05:08:19;102783.00;;;-8.21;100.00
41945;BME280;63122;52.424;13.458;2024-01-10T05:10:15;102776.94;;;-8.26;100.00
41945;BME280;63122;52.424;13.458;2024-01-10T05:12:08;102778.75;;;-8.19;100.00
41945;BME280;63122;52.424;13.458;2024-01-10T05:14:03;102777.94;;;-8.16;100.00
41945;BME280;63122;52.424;13.458;2024-01-10T05:15:59;102781.31;;;-8.19;100.00
41945;BME280;63122;52.424;13.458;2024-01-10T05:17:54;102777.09;;;-8.15;100.00
41945;BME280;63122;52.424;13.458;2024-01-10T05:25:04;102782.09;;;-8.25;100.00
41945;BME280;63122;52.424;13.458;2024-01-10T05:27:00;102794.13;;;-8.19;100.00
41945;BME280;63122;52.424;13.458;2024-01-10T05:28:55;102787.28;;;-8.18;100.00
41945;BME280;63122;52.424;13.458;2024-01-10T05:30:49;102789.78;;;-8.25;100.00
41945;BME280;63122;52.424;13.458;2024-01-10T05:32:44;102793.22;;;-8.22;100.00
41945;BME280;63122;52.424;13.458;2024-01-10T05:34:54;102792.38;;;-8.21;100.00
41945;BME280;63122;52.424;13.458;2024-01-10T05:36:50;102789.81;;;-8.21;100.00
41945;BME280;63122;52.424;13.458;2024-01-10T05:38:46;102796.50;;;-8.31;100.00
41945;BME280;63122;52.424;13.458;2024-01-10T05:40:41;102786.28;;;-8.30;100.00
41945;BME280;63122;52.424;13.458;2024-01-10T05:42:36;102788.06;;;-8.26;100.00
41945;BME280;63122;52.424;13.458;2024-01-10T05:44:32;102794.91;;;-8.25;100.00
41945;BME280;63122;52.424;13.458;2024-01-10T05:46:27;102792.25;;;-8.29;100.00
41945;BME280;63122;52.424;13.458;2024-01-10T05:48:21;102788.91;;;-8.27;100.00
41945;BME280;63122;52.424;13.458;2024-01-10T05:50:16;102782.06;;;-8.28;100.00
41945;BME280;63122;52.424;13.458;2024-01-10T05:52:12;102786.34;;;-8.27;100.00
41945;BME280;63122;52.424;13.458;2024-01-10T05:54:05;102782.91;;;-8.29;100.00
41945;BME280;63122;52.424;13.458;2024-01-10T05:56:06;102786.31;;;-8.28;100.00
41945;BME280;63122;52.424;13.458;2024-01-10T05:58:02;102788.63;;;-8.45;100.00
41945;BME280;63122;52.424;13.458;2024-01-10T05:59:57;102790.28;;;-8.50;100.00
41945;BME280;63122;52.424;13.458;2024-01-10T06:01:52;102781.72;;;-8.52;100.00
41945;BME280;63122;52.424;13.458;2024-01-10T06:03:48;102780.97;;;-8.42;100.00
41945;BME280;63122;52.424;13.458;2024-01-10T06:05:44;102777.53;;;-8.44;100.00
41945;BME280;63122;52.424;13.458;2024-01-10T06:07:37;102773.25;;;-8.45;100.00
41945;BME280;63122;52.424;13.458;2024-01-10T06:09:33;102775.78;;;-8.50;100.00
41945;BME280;63122;52.424;13.458;2024-01-10T06:11:31;102776.56;;;-8.54;100.00
41945;BME280;63122;52.424;13.458;2024-01-10T06:13:24;102771.44;;;-8.56;100.00
41945;BME280;63122;52.424;13.458;2024-01-10T06:15:33;102782.31;;;-8.69;100.00
41945;BME280;63122;52.424;13.458;2024-01-10T06:17:28;102778.16;;;-8.62;100.00
41945;BME280;63122;52.424;13.458;2024-01-10T06:19:24;102775.72;;;-8.55;100.00
41945;BME280;63122;52.424;13.458;2024-01-10T06:21:19;102768.91;;;-8.52;100.00
41945;BME280;63122;52.424;13.458;2024-01-10T06:23:15;102768.97;;;-8.51;100.00
41945;BME280;63122;52.424;13.458;2024-01-10T06:25:08;102767.16;;;-8.55;100.00
41945;BME280;63122;52.424;13.458;2024-01-10T06:27:06;102770.59;;;-8.53;100.00
41945;BME280;63122;52.424;13.458;2024-01-10T06:29:01;102760.31;;;-8.58;100.00
41945;BME280;63122;52.424;13.458;2024-01-10T06:30:57;102754.41;;;-8.52;100.00
41945;BME280;63122;52.424;13.458;2024-01-10T06:32:52;102758.69;;;-8.52;100.00
41945;BME280;63122;52.424;13.458;2024-01-10T06:34:45;102760.44;;;-8.50;100.00
41945;BME280;63122;52.424;13.458;2024-01-10T06:36:40;102754.44;;;-8.47;100.00
41945;BME280;63122;52.424;13.458;2024-01-10T06:38:36;102757.75;;;-8.56;100.00
41945;BME280;63122;52.424;13.458;2024-01-10T06:40:33;102750.91;;;-8.59;100.00
41945;BME280;63122;52.424;13.458;2024-01-10T06:42:28;102754.31;;;-8.58;100.00
41945;BME280;63122;52.424;13.458;2024-01-10T06:44:23;102766.97;;;-8.68;100.00
41945;BME280;63122;52.424;13.458;2024-01-10T06:46:20;102762.84;;;-8.59;100.00
41945;BME280;63122;52.424;13.458;2024-01-10T06:48:16;102762.88;;;-8.56;100.00
41945;BME280;63122;52.424;13.458;2024-01-10T06:50:12;102754.31;;;-8.60;100.00
41945;BME280;63122;52.424;13.458;2024-01-10T06:52:08;102751.00;;;-8.52;100.00
41945;BME280;63122;52.424;13.458;2024-01-10T06:54:03;102753.66;;;-8.43;100.00
41945;BME280;63122;52.424;13.458;2024-01-10T06:55:56;102758.78;;;-8.43;100.00
41945;BME280;63122;52.424;13.458;2024-01-10T06:57:54;102759.56;;;-8.50;100.00
41945;BME280;63122;52.424;13.458;2024-01-10T06:59:49;102765.56;;;-8.50;100.00
41945;BME280;63122;52.424;13.458;2024-01-10T07:01:45;102768.00;;;-8.56;100.00
41945;BME280;63122;52.424;13.458;2024-01-10T07:03:40;102769.81;;;-8.50;100.00
41945;BME280;63122;52.424;13.458;2024-01-10T07:05:37;102769.81;;;-8.47;100.00
41945;BME280;63122;52.424;13.458;2024-01-10T07:07:32;102772.44;;;-8.43;100.00
41945;BME280;63122;52.424;13.458;2024-01-10T07:09:29;102772.53;;;-8.36;100.00
41945;BME280;63122;52.424;13.458;2024-01-10T07:11:24;102771.72;;;-8.34;100.00
41945;BME280;63122;52.424;13.458;2024-01-10T07:13:21;102773.50;;;-8.28;100.00
41945;BME280;63122;52.424;13.458;2024-01-10T07:15:16;102770.94;;;-8.28;100.00
41945;BME280;63122;52.424;13.458;2024-01-10T07:17:10;102766.44;;;-8.45;100.00
41945;BME280;63122;52.424;13.458;2024-01-10T07:19:06;102773.38;;;-8.38;100.00
41945;BME280;63122;52.424;13.458;2024-01-10T07:21:01;102775.13;;;-8.35;100.00
41945;BME280;63122;52.424;13.458;2024-01-10T07:22:58;102769.97;;;-8.36;100.00
41945;BME280;63122;52.424;13.458;2024-01-10T07:24:53;102767.50;;;-8.32;100.00
41945;BME280;63122;52.424;13.458;2024-01-10T07:26:46;102773.44;;;-8.33;100.00
41945;BME280;63122;52.424;13.458;2024-01-10T07:28:44;102769.16;;;-8.32;100.00
41945;BME280;63122;52.424;13.458;2024-01-10T07:30:39;102770.94;;;-8.28;100.00
41945;BME280;63122;52.424;13.458;2024-01-10T07:32:36;102757.28;;;-8.27;100.00
41945;BME280;63122;52.424;13.458;2024-01-10T07:34:32;102764.09;;;-8.29;100.00
41945;BME280;63122;52.424;13.458;2024-01-10T07:36:27;102759.78;;;-8.33;100.00
41945;BME280;63122;52.424;13.458;2024-01-10T07:38:22;102767.50;;;-8.32;100.00
41945;BME280;63122;52.424;13.458;2024-01-10T07:40:17;102770.84;;;-8.34;100.00
41945;BME280;63122;52.424;13.458;2024-01-10T07:42:12;102762.31;;;-8.33;100.00
41945;BME280;63122;52.424;13.458;2024-01-10T07:44:08;102765.78;;;-8.33;100.00
41945;BME280;63122;52.424;13.458;2024-01-10T07:46:04;102763.22;;;-8.31;100.00
41945;BME280;63122;52.424;13.458;2024-01-10T07:48:00;102764.09;;;-8.31;100.00
41945;BME280;63122;52.424;13.458;2024-01-10T07:49:55;102759.69;;;-8.38;100.00
41945;BME280;63122;52.424;13.458;2024-01-10T07:51:48;102761.50;;;-8.32;100.00
41945;BME280;63122;52.424;13.458;2024-01-10T07:53:44;102767.50;;;-8.30;100.00
41945;BME280;63122;52.424;13.458;2024-01-10T07:55:39;102772.66;;;-8.27;100.00
41945;BME280;63122;52.424;13.458;2024-01-10T07:57:35;102768.38;;;-8.30;100.00
41945;BME280;63122;52.424;13.458;2024-01-10T07:59:34;102765.84;;;-8.25;100.00
41945;BME280;63122;52.424;13.458;2024-01-10T08:01:29;102768.47;;;-8.20;100.00
41945;BME280;63122;52.424;13.458;2024-01-10T08:03:22;102770.22;;;-8.19;100.00
41945;BME280;63122;52.424;13.458;2024-01-10T08:05:17;102765.16;;;-8.15;100.00
41945;BME280;63122;52.424;13.458;2024-01-10T08:07:13;102762.59;;;-8.13;100.00
41945;BME280;63122;52.424;13.458;2024-01-10T08:09:06;102772.75;;;-8.19;100.00
41945;BME280;63122;52.424;13.458;2024-01-10T08:11:05;102769.50;;;-8.07;100.00
41945;BME280;63122;52.424;13.458;2024-01-10T08:13:00;102764.56;;;-7.95;100.00
41945;BME280;63122;52.424;13.458;2024-01-10T08:14:59;102768.06;;;-7.87;100.00
41945;BME280;63122;52.424;13.458;2024-01-10T08:16:54;102764.63;;;-7.87;100.00
41945;BME280;63122;52.424;13.458;2024-01-10T08:18:51;102764.78;;;-7.76;100.00
41945;BME280;63122;52.424;13.458;2024-01-10T08:20:46;102767.50;;;-7.64;100.00
41945;BME280;63122;52.424;13.458;2024-01-10T08:22:39;102765.88;;;-7.54;100.00
41945;BME280;63122;52.424;13.458;2024-01-10T08:24:37;102768.56;;;-7.45;100.00
41945;BME280;63122;52.424;13.458;2024-01-10T08:26:33;102770.38;;;-7.33;100.00
41945;BME280;63122;52.424;13.458;2024-01-10T08:28:30;102763.66;;;-7.23;100.00
41945;BME280;63122;52.424;13.458;2024-01-10T08:30:28;102764.63;;;-7.09;100.00
41945;BME280;63122;52.424;13.458;2024-01-10T08:32:21;102768.09;;;-7.03;100.00
41945;BME280;63122;52.424;13.458;2024-01-10T08:34:17;102770.72;;;-6.97;100.00
41945;BME280;63122;52.424;13.458;2024-01-10T08:36:13;102772.50;;;-6.87;100.00
41945;BME280;63122;52.424;13.458;2024-01-10T08:38:09;102780.31;;;-6.74;100.00
41945;BME280;63122;52.424;13.458;2024-01-10T08:40:06;102772.66;;;-6.68;100.00
41945;BME280;63122;52.424;13.458;2024-01-10T08:42:03;102773.56;;;-6.58;100.00
41945;BME280;63122;52.424;13.458;2024-01-10T08:43:59;102775.34;;;-6.49;100.00
41945;BME280;63122;52.424;13.458;2024-01-10T08:45:55;102779.66;;;-6.42;100.00
41945;BME280;63122;52.424;13.458;2024-01-10T08:47:50;102777.19;;;-6.33;100.00
41945;BME280;63122;52.424;13.458;2024-01-10T08:50:02;102782.34;;;-6.27;100.00
41945;BME280;63122;52.424;13.458;2024-01-10T08:52:10;102776.44;;;-6.09;100.00
41945;BME280;63122;52.424;13.458;2024-01-10T08:54:06;102780.78;;;-6.03;100.00
41945;BME280;63122;52.424;13.458;2024-01-10T08:55:59;102777.34;;;-5.96;100.00
41945;BME280;63122;52.424;13.458;2024-01-10T08:58:08;102778.25;;;-5.80;100.00
41945;BME280;63122;52.424;13.458;2024-01-10T09:00:04;102771.44;;;-5.76;100.00
41945;BME280;63122;52.424;13.458;2024-01-10T09:02:07;102783.47;;;-5.66;100.00
41945;BME280;63122;52.424;13.458;2024-01-10T09:04:03;102784.34;;;-5.53;100.00
41945;BME280;63122;52.424;13.458;2024-01-10T09:05:59;102786.06;;;-5.52;100.00
41945;BME280;63122;52.424;13.458;2024-01-10T09:08:04;102776.69;;;-5.40;100.00
41945;BME280;63122;52.424;13.458;2024-01-10T09:10:00;102792.16;;;-5.29;100.00
41945;BME280;63122;52.424;13.458;2024-01-10T09:11:57;102789.56;;;-5.22;100.00
41945;BME280;63122;52.424;13.458;2024-01-10T09:13:53;102786.16;;;-5.07;100.00
41945;BME280;63122;52.424;13.458;2024-01-10T09:15:48;102787.91;;;-4.93;100.00
41945;BME280;63122;52.424;13.458;2024-01-10T09:17:47;102781.91;;;-4.87;100.00
41945;BME280;63122;52.424;13.458;2024-01-10T09:19:42;102776.75;;;-4.80;100.00
41945;BME280;63122;52.424;13.458;2024-01-10T09:21:39;102773.28;;;-4.65;100.00
41945;BME280;63122;52.424;13.458;2024-01-10T09:23:34;102764.69;;;-4.48;100.00
41945;BME280;63122;52.424;13.458;2024-01-10T09:25:29;102767.28;;;-4.43;100.00
41945;BME280;63122;52.424;13.458;2024-01-10T09:27:24;102767.25;;;-4.39;100.00
41945;BME280;63122;52.424;13.458;2024-01-10T09:29:17;102770.66;;;-4.23;100.00
41945;BME280;63122;52.424;13.458;2024-01-10T09:31:12;102761.16;;;-4.08;100.00
41945;BME280;63122;52.424;13.458;2024-01-10T09:33:08;102767.13;;;-3.97;100.00
41945;BME280;63122;52.424;13.458;2024-01-10T09:35:05;102761.09;;;-3.83;99.13
41945;BME280;63122;52.424;13.458;2024-01-10T09:37:01;102760.19;;;-3.74;96.36
41945;BME280;63122;52.424;13.458;2024-01-10T09:38:57;102758.41;;;-3.66;94.90
41945;BME280;63122;52.424;13.458;2024-01-10T09:40:59;102760.09;;;-3.57;93.94
41945;BME280;63122;52.424;13.458;2024-01-10T09:42:55;102760.88;;;-3.44;93.28
41945;BME280;63122;52.424;13.458;2024-01-10T09:44:51;102760.06;;;-3.51;90.92
41945;BME280;63122;52.424;13.458;2024-01-10T09:46:47;102755.59;;;-3.26;91.35
41945;BME280;63122;52.424;13.458;2024-01-10T09:48:57;102757.31;;;-3.23;87.85
41945;BME280;63122;52.424;13.458;2024-01-10T09:50:53;102760.69;;;-3.13;86.18
41945;BME280;63122;52.424;13.458;2024-01-10T09:52:50;102760.53;;;-2.93;85.86
41945;BME280;63122;52.424;13.458;2024-01-10T09:54:47;102765.56;;;-2.81;84.19
41945;BME280;63122;52.424;13.458;2024-01-10T09:56:42;102762.97;;;-2.76;81.74
41945;BME280;63122;52.424;13.458;2024-01-10T09:58:39;102759.38;;;-2.61;80.70
41945;BME280;63122;52.424;13.458;2024-01-10T10:00:39;102761.75;;;-2.39;76.59
41945;BME280;63122;52.424;13.458;2024-01-10T10:02:38;102760.81;;;-2.32;74.48
41945;BME280;63122;52.424;13.458;2024-01-10T10:04:38;102764.09;;;-2.14;73.67
41945;BME280;63122;52.424;13.458;2024-01-10T10:06:37;102754.50;;;-2.06;72.83
41945;BME280;63122;52.424;13.458;2024-01-10T10:08:33;102759.59;;;-1.98;72.43
41945;BME280;63122;52.424;13.458;2024-01-10T10:10:29;102759.47;;;-1.88;72.48
41945;BME280;63122;52.424;13.458;2024-01-10T10:12:41;102763.53;;;-1.69;71.01
41945;BME280;63122;52.424;13.458;2024-01-10T10:14:37;102763.25;;;-1.49;70.36
41945;BME280;63122;52.424;13.458;2024-01-10T10:16:33;102763.31;;;-1.51;69.65
41945;BME280;63122;52.424;13.458;2024-01-10T10:18:29;102762.13;;;-1.31;69.41
41945;BME280;63122;52.424;13.458;2024-01-10T10:20:26;102761.88;;;-1.14;68.59
41945;BME280;63122;52.424;13.458;2024-01-10T10:22:25;102762.84;;;-1.20;67.73
41945;BME280;63122;52.424;13.458;2024-01-10T10:24:17;102765.38;;;-1.17;68.55
41945;BME280;63122;52.424;13.458;2024-01-10T10:26:17;102756.53;;;-1.03;67.80
41945;BME280;63122;52.424;13.458;2024-01-10T10:28:28;102756.53;;;-1.03;66.44
41945;BME280;63122;52.424;13.458;2024-01-10T10:30:31;102746.69;;;-0.82;65.97
41945;BME280;63122;52.424;13.458;2024-01-10T10:32:30;102741.97;;;-0.59;66.03
41945;BME280;63122;52.424;13.458;2024-01-10T10:34:30;102742.53;;;-0.42;63.99
41945;BME280;63122;52.424;13.458;2024-01-10T10:36:39;102739.59;;;-0.24;62.67
41945;BME280;63122;52.424;13.458;2024-01-10T10:38:40;102747.41;;;-0.25;62.38
41945;BME280;63122;52.424;13.458;2024-01-10T10:40:35;102741.13;;;-0.13;62.11
41945;BME280;63122;52.424;13.458;2024-01-10T10:42:39;102734.09;;;-0.08;61.62
41945;BME280;63122;52.424;13.458;2024-01-10T10:44:43;102739.78;;;0.09;60.55
41945;BME280;63122;52.424;13.458;2024-01-10T10:47:11;102730.72;;;0.29;59.24
41945;BME280;63122;52.424;13.458;2024-01-10T10:49:29;102728.66;;;0.45;58.36
41945;BME280;63122;52.424;13.458;2024-01-10T10:51:27;102718.88;;;0.55;58.23
41945;BME280;63122;52.424;13.458;2024-01-10T10:53:35;102723.38;;;0.84;57.10
41945;BME280;63122;52.424;13.458;2024-01-10T10:55:48;102723.28;;;0.89;56.40
41945;BME280;63122;52.424;13.458;2024-01-10T10:57:48;102722.13;;;1.01;56.14
41945;BME280;63122;52.424;13.458;2024-01-10T10:59:57;102724.13;;;1.24;54.53
41945;BME280;63122;52.424;13.458;2024-01-10T11:01:59;102721.06;;;1.41;54.11
41945;BME280;63122;52.424;13.458;2024-01-10T11:03:58;102724.72;;;1.01;54.50
41945;BME280;63122;52.424;13.458;2024-01-10T11:05:55;102724.69;;;1.36;53.94
41945;BME280;63122;52.424;13.458;2024-01-10T11:07:49;102719.16;;;1.48;53.06
41945;BME280;63122;52.424;13.458;2024-01-10T11:09:54;102720.22;;;1.72;52.53
41945;BME280;63122;52.424;13.458;2024-01-10T11:12:02;102720.84;;;1.81;50.49
41945;BME280;63122;52.424;13.458;2024-01-10T11:14:12;102718.19;;;1.84;50.92
41945;BME280;63122;52.424;13.458;2024-01-10T11:16:28;102717.63;;;2.03;50.96
41945;BME280;63122;52.424;13.458;2024-01-10T11:18:45;102713.41;;;2.28;51.26
41945;BME280;63122;52.424;13.458;2024-01-10T11:21:00;102709.56;;;2.40;49.99
41945;BME280;63122;52.424;13.458;2024-01-10T11:23:19;102712.53;;;2.56;50.10
41945;BME280;63122;52.424;13.458;2024-01-10T11:25:21;102708.66;;;2.41;49.35
41945;BME280;63122;52.424;13.458;2024-01-10T11:27:14;102702.63;;;2.41;49.19
41945;BME280;63122;52.424;13.458;2024-01-10T11:29:12;102699.56;;;2.55;48.94
41945;BME280;63122;52.424;13.458;2024-01-10T11:31:08;102699.38;;;2.61;48.51
41945;BME280;63122;52.424;13.458;2024-01-10T11:33:07;102701.66;;;2.97;48.90
41945;BME280;63122;52.424;13.458;2024-01-10T11:35:19;102697.84;;;3.08;47.83
41945;BME280;63122;52.424;13.458;2024-01-10T11:37:16;102697.94;;;3.05;48.19
41945;BME280;63122;52.424;13.458;2024-01-10T11:39:10;102696.06;;;3.08;47.52
41945;BME280;63122;52.424;13.458;2024-01-10T11:41:10;102697.56;;;3.15;46.58
41945;BME280;63122;52.424;13.458;2024-01-10T11:43:03;102694.84;;;3.44;45.80
41945;BME280;63122;52.424;13.458;2024-01-10T11:44:58;102693.63;;;3.29;45.59
41945;BME280;63122;52.424;13.458;2024-01-10T11:46:55;102685.53;;;3.37;45.61
41945;BME280;63122;52.424;13.458;2024-01-10T11:48:48;102685.53;;;3.60;45.68
41945;BME280;63122;52.424;13.458;2024-01-10T11:50:44;102682.72;;;3.67;45.46
41945;BME280;63122;52.424;13.458;2024-01-10T11:52:37;102685.25;;;3.68;44.79
41945;BME280;63122;52.424;13.458;2024-01-10T11:54:37;102681.19;;;3.85;44.56
41945;BME280;63122;52.424;13.458;2024-01-10T11:59:13;102682.44;;;4.43;42.98
41945;BME280;63122;52.424;13.458;2024-01-10T12:01:10;102678.16;;;4.63;42.38
41945;BME280;63122;52.424;13.458;2024-01-10T12:03:06;102674.63;;;4.84;42.21